sensor_id;sensor_type;location;lat;lon;timestamp;pressure;altitude;pressure_sealevel;temperature;humidity
26436;BME280;15351;52.408;16.826;2023-03-05T00:00:30;100626.36;;;1.19;63.70
26436;BME280;15351;52.408;16.826;2023-03-05T00:03:17;100627.62;;;1.24;63.58
26436;BME280;15351;52.408;16.826;2023-03-05T00:05:44;100633.02;;;1.25;63.53
26436;BME280;15351;52.408;16.826;2023-03-05T00:08:13;100628.32;;;1.21;63.44
26436;BME280;15351;52.408;16.826;2023-03-05T00:10:53;100621.56;;;1.22;63.77
26436;BME280;15351;52.408;16.826;2023-03-05T00:13:23;100617.63;;;1.22;63.92
26436;BME280;15351;52.408;16.826;2023-03-05T00:15:56;100615.50;;;1.22;63.87
26436;BME280;15351;52.408;16.826;2023-03-05T00:18:44;100614.98;;;1.20;63.87
26436;BME280;15351;52.408;16.826;2023-03-05T00:21:30;100606.98;;;1.20;63.92
26436;BME280;15351;52.408;16.826;2023-03-05T00:23:59;100601.09;;;1.25;64.10
26436;BME280;15351;52.408;16.826;2023-03-05T00:26:28;100600.34;;;1.29;64.02
26436;BME280;15351;52.408;16.826;2023-03-05T00:28:56;100597.77;;;1.30;63.92
26436;BME280;15351;52.408;16.826;2023-03-05T00:31:28;100603.48;;;1.31;64.14
26436;BME280;15351;52.408;16.826;2023-03-05T00:34:07;100598.15;;;1.33;64.23
26436;BME280;15351;52.408;16.826;2023-03-05T00:36:42;100599.34;;;1.34;64.15
26436;BME280;15351;52.408;16.826;2023-03-05T00:39:15;100598.65;;;1.36;64.18
26436;BME280;15351;52.408;16.826;2023-03-05T00:41:43;100598.64;;;1.36;64.11
26436;BME280;15351;52.408;16.826;2023-03-05T00:44:14;100594.98;;;1.35;63.97
26436;BME280;15351;52.408;16.826;2023-03-05T00:46:40;100592.25;;;1.34;63.86
26436;BME280;15351;52.408;16.826;2023-03-05T00:49:08;100587.67;;;1.36;63.99
26436;BME280;15351;52.408;16.826;2023-03-05T00:51:36;100584.95;;;1.35;64.03
26436;BME280;15351;52.408;16.826;2023-03-05T00:54:14;100579.25;;;1.35;64.22
26436;BME280;15351;52.408;16.826;2023-03-05T00:56:44;100577.69;;;1.37;64.20
26436;BME280;15351;52.408;16.826;2023-03-05T00:59:13;100573.53;;;1.38;64.16
26436;BME280;15351;52.408;16.826;2023-03-05T01:01:42;100568.17;;;1.41;63.97
26436;BME280;15351;52.408;16.826;2023-03-05T01:04:10;100567.34;;;1.40;63.75
26436;BME280;15351;52.408;16.826;2023-03-05T01:06:38;100562.71;;;1.36;63.78
26436;BME280;15351;52.408;16.826;2023-03-05T01:09:09;100560.63;;;1.33;63.76
26436;BME280;15351;52.408;16.826;2023-03-05T01:11:36;100556.75;;;1.29;63.69
26436;BME280;15351;52.408;16.826;2023-03-05T01:14:03;100552.33;;;1.24;63.90
26436;BME280;15351;52.408;16.826;2023-03-05T01:16:38;100552.36;;;1.19;64.07
26436;BME280;15351;52.408;16.826;2023-03-05T01:19:09;100553.79;;;1.19;64.11
26436;BME280;15351;52.408;16.826;2023-03-05T01:21:37;100551.35;;;1.18;64.06
26436;BME280;15351;52.408;16.826;2023-03-05T01:24:04;100547.62;;;1.16;63.94
26436;BME280;15351;52.408;16.826;2023-03-05T01:26:34;100546.98;;;1.13;64.07
26436;BME280;15351;52.408;16.826;2023-03-05T01:29:06;100548.05;;;1.09;64.17
26436;BME280;15351;52.408;16.826;2023-03-05T01:31:36;100547.96;;;1.05;64.24
26436;BME280;15351;52.408;16.826;2023-03-05T01:34:03;100543.39;;;1.00;64.40
26436;BME280;15351;52.408;16.826;2023-03-05T01:36:30;100543.35;;;1.01;64.77
26436;BME280;15351;52.408;16.826;2023-03-05T01:38:57;100535.88;;;1.04;64.60
26436;BME280;15351;52.408;16.826;2023-03-05T01:41:24;100528.90;;;1.04;64.39
26436;BME280;15351;52.408;16.826;2023-03-05T01:43:53;100526.87;;;1.01;64.24
26436;BME280;15351;52.408;16.826;2023-03-05T01:49:23;100535.39;;;0.92;64.21
26436;BME280;15351;52.408;16.826;2023-03-05T01:52:15;100536.85;;;0.82;64.63
26436;BME280;15351;52.408;16.826;2023-03-05T01:54:49;100534.35;;;0.75;64.90
26436;BME280;15351;52.408;16.826;2023-03-05T01:57:35;100530.77;;;0.75;65.27
26436;BME280;15351;52.408;16.826;2023-03-05T02:00:14;100529.48;;;0.81;65.37
26436;BME280;15351;52.408;16.826;2023-03-05T02:02:49;100531.66;;;0.85;65.38
26436;BME280;15351;52.408;16.826;2023-03-05T02:05:31;100525.84;;;0.83;65.33
26436;BME280;15351;52.408;16.826;2023-03-05T02:08:02;100517.34;;;0.78;65.39
26436;BME280;15351;52.408;16.826;2023-03-05T02:10:50;100516.45;;;0.73;65.67
26436;BME280;15351;52.408;16.826;2023-03-05T02:13:24;100511.72;;;0.75;65.84
26436;BME280;15351;52.408;16.826;2023-03-05T02:15:53;100510.12;;;0.80;65.81
26436;BME280;15351;52.408;16.826;2023-03-05T02:18:25;100499.77;;;0.85;65.73
26436;BME280;15351;52.408;16.826;2023-03-05T02:21:14;100502.64;;;0.87;65.71
26436;BME280;15351;52.408;16.826;2023-03-05T02:23:54;100494.36;;;0.85;65.79
26436;BME280;15351;52.408;16.826;2023-03-05T02:26:22;100491.36;;;0.87;65.91
26436;BME280;15351;52.408;16.826;2023-03-05T02:28:54;100482.77;;;0.93;65.99
26436;BME280;15351;52.408;16.826;2023-03-05T02:31:24;100475.23;;;0.96;65.93
26436;BME280;15351;52.408;16.826;2023-03-05T02:33:53;100471.50;;;0.99;65.73
26436;BME280;15351;52.408;16.826;2023-03-05T02:36:22;100469.86;;;1.04;65.84
26436;BME280;15351;52.408;16.826;2023-03-05T02:38:51;100462.65;;;1.05;65.91
26436;BME280;15351;52.408;16.826;2023-03-05T02:41:20;100460.58;;;1.07;66.04
26436;BME280;15351;52.408;16.826;2023-03-05T02:43:54;100458.33;;;1.11;66.07
26436;BME280;15351;52.408;16.826;2023-03-05T02:46:22;100446.16;;;1.16;66.12
26436;BME280;15351;52.408;16.826;2023-03-05T02:48:50;100438.41;;;1.23;66.07
26436;BME280;15351;52.408;16.826;2023-03-05T02:51:19;100434.27;;;1.28;65.95
26436;BME280;15351;52.408;16.826;2023-03-05T02:53:50;100432.71;;;1.30;65.76
26436;BME280;15351;52.408;16.826;2023-03-05T02:56:18;100426.48;;;1.28;65.67
26436;BME280;15351;52.408;16.826;2023-03-05T02:58:45;100428.20;;;1.29;65.97
26436;BME280;15351;52.408;16.826;2023-03-05T03:01:27;100425.61;;;1.32;65.95
26436;BME280;15351;52.408;16.826;2023-03-05T03:03:56;100422.90;;;1.37;65.88
26436;BME280;15351;52.408;16.826;2023-03-05T03:06:23;100421.83;;;1.40;65.73
26436;BME280;15351;52.408;16.826;2023-03-05T03:08:51;100421.83;;;1.44;65.80
26436;BME280;15351;52.408;16.826;2023-03-05T03:11:18;100415.56;;;1.47;65.68
26436;BME280;15351;52.408;16.826;2023-03-05T03:13:47;100413.05;;;1.48;65.71
26436;BME280;15351;52.408;16.826;2023-03-05T03:16:15;100408.41;;;1.52;66.00
26436;BME280;15351;52.408;16.826;2023-03-05T03:18:43;100408.22;;;1.56;66.14
26436;BME280;15351;52.408;16.826;2023-03-05T03:21:19;100410.20;;;1.60;65.68
26436;BME280;15351;52.408;16.826;2023-03-05T03:23:48;100410.52;;;1.59;65.65
26436;BME280;15351;52.408;16.826;2023-03-05T03:26:15;100406.73;;;1.59;65.63
26436;BME280;15351;52.408;16.826;2023-03-05T03:28:43;100405.54;;;1.63;65.81
26436;BME280;15351;52.408;16.826;2023-03-05T03:31:10;100399.39;;;1.65;65.74
26436;BME280;15351;52.408;16.826;2023-03-05T03:33:37;100395.14;;;1.67;65.90
26436;BME280;15351;52.408;16.826;2023-03-05T03:36:06;100394.44;;;1.71;65.93
26436;BME280;15351;52.408;16.826;2023-03-05T03:38:34;100386.29;;;1.73;65.74
26436;BME280;15351;52.408;16.826;2023-03-05T03:41:07;100385.03;;;1.74;65.68
26436;BME280;15351;52.408;16.826;2023-03-05T03:43:42;100383.65;;;1.75;65.73
26436;BME280;15351;52.408;16.826;2023-03-05T03:46:10;100378.89;;;1.75;65.75
26436;BME280;15351;52.408;16.826;2023-03-05T03:48:38;100376.98;;;1.75;65.84
26436;BME280;15351;52.408;16.826;2023-03-05T03:51:06;100375.75;;;1.77;65.98
26436;BME280;15351;52.408;16.826;2023-03-05T03:53:35;100371.35;;;1.82;65.91
26436;BME280;15351;52.408;16.826;2023-03-05T03:56:15;100365.91;;;1.88;65.93
26436;BME280;15351;52.408;16.826;2023-03-05T03:58:43;100354.23;;;1.92;65.66
26436;BME280;15351;52.408;16.826;2023-03-05T04:01:11;100344.67;;;1.94;65.60
26436;BME280;15351;52.408;16.826;2023-03-05T04:03:41;100338.91;;;1.93;65.54
26436;BME280;15351;52.408;16.826;2023-03-05T04:06:14;100338.52;;;1.94;65.64
26436;BME280;15351;52.408;16.826;2023-03-05T04:08:41;100332.27;;;1.96;65.82
26436;BME280;15351;52.408;16.826;2023-03-05T04:11:08;100325.39;;;2.00;65.85
26436;BME280;15351;52.408;16.826;2023-03-05T04:13:36;100320.39;;;2.02;65.72
26436;BME280;15351;52.408;16.826;2023-03-05T04:16:26;100315.73;;;2.02;65.65
26436;BME280;15351;52.408;16.826;2023-03-05T04:18:54;100314.88;;;2.05;65.67
26436;BME280;15351;52.408;16.826;2023-03-05T04:21:23;100315.97;;;2.04;65.71
26436;BME280;15351;52.408;16.826;2023-03-05T04:23:51;100314.02;;;2.02;65.76
26436;BME280;15351;52.408;16.826;2023-03-05T04:26:18;100311.61;;;2.01;65.82
26436;BME280;15351;52.408;16.826;2023-03-05T04:28:49;100309.95;;;2.02;65.77
26436;BME280;15351;52.408;16.826;2023-03-05T04:31:25;100306.61;;;1.99;65.69
26436;BME280;15351;52.408;16.826;2023-03-05T04:33:52;100303.42;;;1.99;65.74
26436;BME280;15351;52.408;16.826;2023-03-05T04:36:44;100303.93;;;1.98;65.85
26436;BME280;15351;52.408;16.826;2023-03-05T04:39:15;100293.13;;;1.94;66.01
26436;BME280;15351;52.408;16.826;2023-03-05T04:41:43;100289.41;;;1.92;66.30
26436;BME280;15351;52.408;16.826;2023-03-05T04:44:14;100289.79;;;1.93;66.57
26436;BME280;15351;52.408;16.826;2023-03-05T04:46:55;100284.48;;;1.97;66.50
26436;BME280;15351;52.408;16.826;2023-03-05T04:49:24;100281.33;;;1.97;66.57
26436;BME280;15351;52.408;16.826;2023-03-05T04:51:51;100277.94;;;1.99;66.60
26436;BME280;15351;52.408;16.826;2023-03-05T04:54:18;100276.77;;;2.00;66.68
26436;BME280;15351;52.408;16.826;2023-03-05T04:56:45;100266.37;;;2.04;67.03
26436;BME280;15351;52.408;16.826;2023-03-05T04:59:12;100262.27;;;2.06;67.05
26436;BME280;15351;52.408;16.826;2023-03-05T05:01:39;100261.25;;;2.10;66.81
26436;BME280;15351;52.408;16.826;2023-03-05T05:04:06;100259.65;;;2.09;66.87
26436;BME280;15351;52.408;16.826;2023-03-05T05:06:33;100263.29;;;2.09;66.79
26436;BME280;15351;52.408;16.826;2023-03-05T05:09:01;100266.57;;;2.05;67.02
26436;BME280;15351;52.408;16.826;2023-03-05T05:11:28;100263.81;;;2.07;67.26
26436;BME280;15351;52.408;16.826;2023-03-05T05:13:55;100267.20;;;2.06;67.41
26436;BME280;15351;52.408;16.826;2023-03-05T05:16:23;100267.73;;;2.06;67.49
26436;BME280;15351;52.408;16.826;2023-03-05T05:18:51;100269.08;;;2.07;67.33
26436;BME280;15351;52.408;16.826;2023-03-05T05:21:19;100267.84;;;2.07;67.51
26436;BME280;15351;52.408;16.826;2023-03-05T05:23:47;100266.61;;;2.09;67.75
26436;BME280;15351;52.408;16.826;2023-03-05T05:26:14;100269.55;;;2.12;67.71
26436;BME280;15351;52.408;16.826;2023-03-05T05:28:42;100263.27;;;2.15;67.98
26436;BME280;15351;52.408;16.826;2023-03-05T05:31:19;100264.95;;;2.18;67.74
26436;BME280;15351;52.408;16.826;2023-03-05T05:33:49;100262.13;;;2.20;67.77
26436;BME280;15351;52.408;16.826;2023-03-05T05:36:20;100263.56;;;2.20;67.83
26436;BME280;15351;52.408;16.826;2023-03-05T05:39:04;100263.42;;;2.17;67.83
26436;BME280;15351;52.408;16.826;2023-03-05T05:41:31;100263.21;;;2.18;68.07
26436;BME280;15351;52.408;16.826;2023-03-05T05:44:00;100256.00;;;2.21;68.10
26436;BME280;15351;52.408;16.826;2023-03-05T05:46:29;100254.34;;;2.24;68.23
26436;BME280;15351;52.408;16.826;2023-03-05T05:48:57;100255.02;;;2.30;68.17
26436;BME280;15351;52.408;16.826;2023-03-05T05:51:24;100256.40;;;2.31;68.26
26436;BME280;15351;52.408;16.826;2023-03-05T05:53:59;100253.71;;;2.33;68.20
26436;BME280;15351;52.408;16.826;2023-03-05T05:56:28;100255.80;;;2.38;68.39
26436;BME280;15351;52.408;16.826;2023-03-05T05:58:57;100251.50;;;2.36;68.13
26436;BME280;15351;52.408;16.826;2023-03-05T06:01:28;100248.77;;;2.35;68.18
26436;BME280;15351;52.408;16.826;2023-03-05T06:03:59;100248.73;;;2.36;68.15
26436;BME280;15351;52.408;16.826;2023-03-05T06:06:29;100249.73;;;2.34;68.11
26436;BME280;15351;52.408;16.826;2023-03-05T06:08:56;100246.48;;;2.35;68.31
26436;BME280;15351;52.408;16.826;2023-03-05T06:11:26;100241.63;;;2.39;68.55
26436;BME280;15351;52.408;16.826;2023-03-05T06:13:53;100244.36;;;2.41;68.26
26436;BME280;15351;52.408;16.826;2023-03-05T06:16:24;100250.07;;;2.40;67.97
26436;BME280;15351;52.408;16.826;2023-03-05T06:18:52;100250.63;;;2.34;67.92
26436;BME280;15351;52.408;16.826;2023-03-05T06:21:21;100245.77;;;2.28;68.06
26436;BME280;15351;52.408;16.826;2023-03-05T06:23:59;100251.08;;;2.27;68.31
26436;BME280;15351;52.408;16.826;2023-03-05T06:26:26;100253.07;;;2.32;68.46
26436;BME280;15351;52.408;16.826;2023-03-05T06:28:55;100248.14;;;2.34;68.67
26436;BME280;15351;52.408;16.826;2023-03-05T06:31:24;100249.11;;;2.33;68.74
26436;BME280;15351;52.408;16.826;2023-03-05T06:33:55;100245.03;;;2.27;69.07
26436;BME280;15351;52.408;16.826;2023-03-05T06:36:24;100244.73;;;2.22;69.27
26436;BME280;15351;52.408;16.826;2023-03-05T06:38:54;100242.95;;;2.18;69.52
26436;BME280;15351;52.408;16.826;2023-03-05T06:41:26;100241.33;;;2.16;69.80
26436;BME280;15351;52.408;16.826;2023-03-05T06:43:59;100235.79;;;2.11;69.96
26436;BME280;15351;52.408;16.826;2023-03-05T06:46:29;100235.62;;;2.07;70.15
26436;BME280;15351;52.408;16.826;2023-03-05T06:48:58;100232.59;;;2.05;70.33
26436;BME280;15351;52.408;16.826;2023-03-05T06:51:36;100228.33;;;2.09;70.67
26436;BME280;15351;52.408;16.826;2023-03-05T06:54:12;100226.44;;;2.12;70.91
26436;BME280;15351;52.408;16.826;2023-03-05T06:56:47;100227.34;;;2.12;70.92
26436;BME280;15351;52.408;16.826;2023-03-05T06:59:16;100230.36;;;2.14;70.91
26436;BME280;15351;52.408;16.826;2023-03-05T07:01:45;100230.63;;;2.15;70.94
26436;BME280;15351;52.408;16.826;2023-03-05T07:04:14;100230.84;;;2.15;71.07
26436;BME280;15351;52.408;16.826;2023-03-05T07:06:44;100228.80;;;2.18;71.27
26436;BME280;15351;52.408;16.826;2023-03-05T07:09:14;100220.09;;;2.18;71.21
26436;BME280;15351;52.408;16.826;2023-03-05T07:11:43;100218.77;;;2.21;71.37
26436;BME280;15351;52.408;16.826;2023-03-05T07:14:12;100219.64;;;2.19;71.27
26436;BME280;15351;52.408;16.826;2023-03-05T07:16:43;100222.88;;;2.19;71.58
26436;BME280;15351;52.408;16.826;2023-03-05T07:19:12;100223.22;;;2.27;71.81
26436;BME280;15351;52.408;16.826;2023-03-05T07:21:44;100221.64;;;2.31;71.84
26436;BME280;15351;52.408;16.826;2023-03-05T07:24:14;100221.73;;;2.33;71.89
26436;BME280;15351;52.408;16.826;2023-03-05T07:26:47;100223.59;;;2.29;71.91
26436;BME280;15351;52.408;16.826;2023-03-05T07:29:14;100220.80;;;2.26;72.11
26436;BME280;15351;52.408;16.826;2023-03-05T07:31:41;100214.92;;;2.26;72.48
26436;BME280;15351;52.408;16.826;2023-03-05T07:34:08;100215.48;;;2.26;72.54
26436;BME280;15351;52.408;16.826;2023-03-05T07:36:37;100209.91;;;2.29;72.70
26436;BME280;15351;52.408;16.826;2023-03-05T07:39:05;100207.09;;;2.29;72.84
26436;BME280;15351;52.408;16.826;2023-03-05T07:41:32;100208.55;;;2.24;72.86
26436;BME280;15351;52.408;16.826;2023-03-05T07:44:02;100210.41;;;2.27;73.40
26436;BME280;15351;52.408;16.826;2023-03-05T07:46:32;100207.38;;;2.29;73.61
26436;BME280;15351;52.408;16.826;2023-03-05T07:48:59;100201.77;;;2.27;73.50
26436;BME280;15351;52.408;16.826;2023-03-05T07:51:27;100204.74;;;2.21;73.53
26436;BME280;15351;52.408;16.826;2023-03-05T07:53:58;100198.06;;;2.15;73.85
26436;BME280;15351;52.408;16.826;2023-03-05T07:56:29;100194.20;;;2.18;74.26
26436;BME280;15351;52.408;16.826;2023-03-05T07:58:59;100187.19;;;2.19;74.45
26436;BME280;15351;52.408;16.826;2023-03-05T08:01:30;100188.45;;;2.15;74.44
26436;BME280;15351;52.408;16.826;2023-03-05T08:03:59;100188.02;;;2.18;74.73
26436;BME280;15351;52.408;16.826;2023-03-05T08:06:27;100186.71;;;2.23;74.79
26436;BME280;15351;52.408;16.826;2023-03-05T08:08:55;100181.17;;;2.23;75.00
26436;BME280;15351;52.408;16.826;2023-03-05T08:11:32;100180.65;;;2.27;75.09
26436;BME280;15351;52.408;16.826;2023-03-05T08:14:14;100184.11;;;2.32;75.10
26436;BME280;15351;52.408;16.826;2023-03-05T08:16:54;100183.55;;;2.36;75.26
26436;BME280;15351;52.408;16.826;2023-03-05T08:19:22;100180.36;;;2.48;75.22
26436;BME280;15351;52.408;16.826;2023-03-05T08:21:50;100180.30;;;2.56;75.42
26436;BME280;15351;52.408;16.826;2023-03-05T08:24:37;100177.77;;;2.65;75.28
26436;BME280;15351;52.408;16.826;2023-03-05T08:27:04;100178.41;;;2.70;75.18
26436;BME280;15351;52.408;16.826;2023-03-05T08:29:51;100177.00;;;2.73;74.99
26436;BME280;15351;52.408;16.826;2023-03-05T08:32:55;100173.52;;;2.76;75.13
26436;BME280;15351;52.408;16.826;2023-03-05T08:35:55;100175.80;;;2.88;74.99
26436;BME280;15351;52.408;16.826;2023-03-05T08:38:35;100172.42;;;2.90;74.56
26436;BME280;15351;52.408;16.826;2023-03-05T08:41:31;100172.00;;;2.91;74.53
26436;BME280;15351;52.408;16.826;2023-03-05T08:44:18;100172.81;;;2.94;74.61
26436;BME280;15351;52.408;16.826;2023-03-05T08:46:52;100167.75;;;3.01;74.68
26436;BME280;15351;52.408;16.826;2023-03-05T08:49:37;100166.08;;;3.02;74.34
26436;BME280;15351;52.408;16.826;2023-03-05T08:52:46;100162.49;;;3.02;74.24
26436;BME280;15351;52.408;16.826;2023-03-05T08:55:18;100160.06;;;3.09;74.18
26436;BME280;15351;52.408;16.826;2023-03-05T08:57:49;100158.98;;;3.15;74.11
26436;BME280;15351;52.408;16.826;2023-03-05T09:00:29;100161.25;;;3.19;73.71
26436;BME280;15351;52.408;16.826;2023-03-05T09:03:12;100156.68;;;3.21;73.61
26436;BME280;15351;52.408;16.826;2023-03-05T09:06:19;100161.02;;;3.22;73.43
26436;BME280;15351;52.408;16.826;2023-03-05T09:08:49;100159.52;;;3.25;73.54
26436;BME280;15351;52.408;16.826;2023-03-05T09:11:22;100160.08;;;3.34;73.42
26436;BME280;15351;52.408;16.826;2023-03-05T09:13:54;100161.09;;;3.34;73.17
26436;BME280;15351;52.408;16.826;2023-03-05T09:16:21;100160.55;;;3.42;73.01
26436;BME280;15351;52.408;16.826;2023-03-05T09:18:50;100158.62;;;3.45;72.81
26436;BME280;15351;52.408;16.826;2023-03-05T09:21:27;100157.21;;;3.49;72.88
26436;BME280;15351;52.408;16.826;2023-03-05T09:24:15;100155.30;;;3.54;72.49
26436;BME280;15351;52.408;16.826;2023-03-05T09:27:26;100156.27;;;3.61;72.21
26436;BME280;15351;52.408;16.826;2023-03-05T09:30:10;100156.18;;;3.69;71.65
26436;BME280;15351;52.408;16.826;2023-03-05T09:32:40;100154.55;;;3.72;71.55
26436;BME280;15351;52.408;16.826;2023-03-05T09:35:37;100153.50;;;3.77;71.62
26436;BME280;15351;52.408;16.826;2023-03-05T09:38:23;100156.61;;;3.83;71.06
26436;BME280;15351;52.408;16.826;2023-03-05T09:51:01;100146.89;;;4.03;70.08
26436;BME280;15351;52.408;16.826;2023-03-05T09:56:47;100144.85;;;4.37;70.07
26436;BME280;15351;52.408;16.826;2023-03-05T10:02:48;100141.63;;;4.41;68.38
26436;BME280;15351;52.408;16.826;2023-03-05T10:08:16;100141.20;;;4.54;68.17
26436;BME280;15351;52.408;16.826;2023-03-05T10:10:50;100130.77;;;4.71;68.24
26436;BME280;15351;52.408;16.826;2023-03-05T10:13:26;100121.97;;;5.11;68.40
26436;BME280;15351;52.408;16.826;2023-03-05T10:20:01;100116.14;;;5.75;66.60
26436;BME280;15351;52.408;16.826;2023-03-05T10:32:20;100112.75;;;6.72;64.44
26436;BME280;15351;52.408;16.826;2023-03-05T11:06:06;100094.11;;;6.58;56.55
26436;BME280;15351;52.408;16.826;2023-03-05T11:09:30;100094.16;;;6.45;56.13
26436;BME280;15351;52.408;16.826;2023-03-05T11:12:53;100094.79;;;6.18;55.71
26436;BME280;15351;52.408;16.826;2023-03-05T11:19:09;100103.69;;;5.55;57.52
26436;BME280;15351;52.408;16.826;2023-03-05T11:22:33;100114.41;;;5.33;58.91
26436;BME280;15351;52.408;16.826;2023-03-05T11:37:10;100113.98;;;5.14;60.40
26436;BME280;15351;52.408;16.826;2023-03-05T11:40:37;100112.27;;;4.94;61.12
26436;BME280;15351;52.408;16.826;2023-03-05T11:43:04;100110.37;;;4.95;61.28
26436;BME280;15351;52.408;16.826;2023-03-05T11:46:14;100108.75;;;5.01;61.46
26436;BME280;15351;52.408;16.826;2023-03-05T11:48:44;100111.71;;;5.05;61.69
26436;BME280;15351;52.408;16.826;2023-03-05T11:54:15;100111.14;;;5.19;61.94
26436;BME280;15351;52.408;16.826;2023-03-05T11:57:01;100111.02;;;5.26;61.89
26436;BME280;15351;52.408;16.826;2023-03-05T11:59:33;100106.70;;;5.33;61.69
26436;BME280;15351;52.408;16.826;2023-03-05T12:02:00;100109.16;;;5.38;61.72
26436;BME280;15351;52.408;16.826;2023-03-05T12:04:34;100107.48;;;5.38;61.24
26436;BME280;15351;52.408;16.826;2023-03-05T12:07:52;100105.59;;;5.35;61.14
26436;BME280;15351;52.408;16.826;2023-03-05T12:10:23;100107.79;;;5.35;61.08
26436;BME280;15351;52.408;16.826;2023-03-05T12:21:06;100109.92;;;5.10;61.32
26436;BME280;15351;52.408;16.826;2023-03-05T12:23:51;100115.75;;;5.00;61.30
26436;BME280;15351;52.408;16.826;2023-03-05T12:26:58;100109.38;;;4.95;61.77
26436;BME280;15351;52.408;16.826;2023-03-05T12:35:26;100103.09;;;4.76;63.05
26436;BME280;15351;52.408;16.826;2023-03-05T12:38:16;100100.05;;;4.76;62.99
26436;BME280;15351;52.408;16.826;2023-03-05T12:40:45;100102.11;;;4.73;63.00
26436;BME280;15351;52.408;16.826;2023-03-05T12:43:32;100103.59;;;4.71;63.10
26436;BME280;15351;52.408;16.826;2023-03-05T12:46:26;100102.30;;;4.65;63.24
26436;BME280;15351;52.408;16.826;2023-03-05T12:49:38;100105.34;;;4.63;63.42
26436;BME280;15351;52.408;16.826;2023-03-05T12:52:22;100109.97;;;4.65;63.81
26436;BME280;15351;52.408;16.826;2023-03-05T13:01:16;100102.30;;;4.62;63.06
26436;BME280;15351;52.408;16.826;2023-03-05T13:07:32;100102.14;;;4.53;63.00
26436;BME280;15351;52.408;16.826;2023-03-05T13:14:31;100105.44;;;4.40;62.96
26436;BME280;15351;52.408;16.826;2023-03-05T13:17:39;100107.15;;;4.31;62.92
26436;BME280;15351;52.408;16.826;2023-03-05T13:23:24;100102.00;;;4.22;62.25
26436;BME280;15351;52.408;16.826;2023-03-05T13:26:21;100099.16;;;4.15;61.99
26436;BME280;15351;52.408;16.826;2023-03-05T13:29:16;100100.77;;;4.06;61.94
26436;BME280;15351;52.408;16.826;2023-03-05T13:31:59;100103.66;;;3.96;61.87
26436;BME280;15351;52.408;16.826;2023-03-05T13:34:49;100099.54;;;3.95;62.13
26436;BME280;15351;52.408;16.826;2023-03-05T13:37:45;100095.21;;;4.04;62.46
26436;BME280;15351;52.408;16.826;2023-03-05T13:40:22;100093.73;;;4.11;62.34
26436;BME280;15351;52.408;16.826;2023-03-05T13:43:14;100094.60;;;4.16;62.79
26436;BME280;15351;52.408;16.826;2023-03-05T13:45:56;100092.89;;;4.20;62.73
26436;BME280;15351;52.408;16.826;2023-03-05T13:48:38;100090.31;;;4.21;62.40
26436;BME280;15351;52.408;16.826;2023-03-05T13:51:17;100085.04;;;4.19;62.17
26436;BME280;15351;52.408;16.826;2023-03-05T13:53:48;100077.90;;;4.25;62.40
26436;BME280;15351;52.408;16.826;2023-03-05T13:56:20;100073.21;;;4.29;62.41
26436;BME280;15351;52.408;16.826;2023-03-05T13:58:52;100068.48;;;4.39;62.49
26436;BME280;15351;52.408;16.826;2023-03-05T14:01:42;100066.33;;;4.50;62.33
26436;BME280;15351;52.408;16.826;2023-03-05T14:04:35;100066.69;;;4.53;62.08
26436;BME280;15351;52.408;16.826;2023-03-05T14:07:29;100067.11;;;4.53;61.79
26436;BME280;15351;52.408;16.826;2023-03-05T14:10:34;100065.90;;;4.56;61.81
26436;BME280;15351;52.408;16.826;2023-03-05T14:13:22;100066.58;;;4.63;61.96
26436;BME280;15351;52.408;16.826;2023-03-05T14:16:13;100060.89;;;4.70;61.58
26436;BME280;15351;52.408;16.826;2023-03-05T14:19:04;100060.42;;;4.77;61.62
26436;BME280;15351;52.408;16.826;2023-03-05T14:22:05;100057.32;;;4.88;61.54
26436;BME280;15351;52.408;16.826;2023-03-05T14:24:52;100050.48;;;5.01;61.43
26436;BME280;15351;52.408;16.826;2023-03-05T14:27:22;100044.95;;;5.15;61.46
26436;BME280;15351;52.408;16.826;2023-03-05T14:30:24;100041.64;;;5.16;60.48
26436;BME280;15351;52.408;16.826;2023-03-05T14:33:21;100036.09;;;5.18;60.32
26436;BME280;15351;52.408;16.826;2023-03-05T14:36:19;100036.55;;;5.27;60.50
26436;BME280;15351;52.408;16.826;2023-03-05T14:39:30;100025.05;;;5.37;60.24
26436;BME280;15351;52.408;16.826;2023-03-05T14:45:42;100026.08;;;5.33;59.33
26436;BME280;15351;52.408;16.826;2023-03-05T14:48:14;100027.09;;;5.29;59.32
26436;BME280;15351;52.408;16.826;2023-03-05T14:50:47;100025.33;;;5.20;59.08
26436;BME280;15351;52.408;16.826;2023-03-05T14:53:21;100028.23;;;5.20;59.20
26436;BME280;15351;52.408;16.826;2023-03-05T14:56:32;100029.91;;;5.13;58.97
26436;BME280;15351;52.408;16.826;2023-03-05T14:59:02;100025.05;;;5.09;59.09
26436;BME280;15351;52.408;16.826;2023-03-05T15:01:31;100031.20;;;5.09;59.10
26436;BME280;15351;52.408;16.826;2023-03-05T15:03:58;100034.55;;;5.08;59.24
26436;BME280;15351;52.408;16.826;2023-03-05T15:06:51;100029.95;;;5.10;59.32
26436;BME280;15351;52.408;16.826;2023-03-05T15:09:21;100028.00;;;5.10;59.40
26436;BME280;15351;52.408;16.826;2023-03-05T15:11:52;100022.31;;;5.08;59.03
26436;BME280;15351;52.408;16.826;2023-03-05T15:14:19;100026.90;;;5.06;58.57
26436;BME280;15351;52.408;16.826;2023-03-05T15:16:47;100025.48;;;5.04;58.25
26436;BME280;15351;52.408;16.826;2023-03-05T15:19:34;100024.91;;;5.02;58.30
26436;BME280;15351;52.408;16.826;2023-03-05T15:22:31;100024.23;;;5.04;58.30
26436;BME280;15351;52.408;16.826;2023-03-05T15:24:59;100021.88;;;5.04;58.38
26436;BME280;15351;52.408;16.826;2023-03-05T15:27:29;100023.19;;;5.05;58.36
26436;BME280;15351;52.408;16.826;2023-03-05T15:30:25;100024.05;;;5.05;57.99
26436;BME280;15351;52.408;16.826;2023-03-05T15:33:04;100023.14;;;5.04;57.83
26436;BME280;15351;52.408;16.826;2023-03-05T15:35:38;100024.11;;;5.01;57.30